| time (UTC) | temp F | wind direction | speed knots | gust knots | rain 1hr in | rain 24hr in | rain mn in | humidity % | barometer mb |
| 20260505151544 | 52 | 129 | 0.0 | 0.0 | 0.00 | 0.00 | 0.00 | 92 | 1015.7 |
| 20260505124523 | 49 | 132 | 0.0 | 0.0 | 0.00 | 0.00 | 0.00 | 92 | 1014.8 |
| 20260505123021 | 49 | 132 | 0.0 | 0.0 | 0.00 | 0.00 | 0.00 | 91 | 1014.8 |
| 20260505121520 | 49 | 132 | 0.0 | 0.0 | 0.00 | 0.00 | 0.00 | 91 | 1014.8 |
| 20260505120034 | 49 | 132 | 0.0 | 0.0 | 0.00 | 0.00 | 0.00 | 92 | 1014.8 |
| 20260505114519 | 49 | 132 | 0.0 | 0.0 | 0.00 | 0.00 | 0.00 | 92 | 1014.7 |
| 20260505113017 | 49 | 132 | 0.0 | 0.0 | 0.00 | 0.00 | 0.00 | 91 | 1014.6 |
| 20260505111525 | 49 | 132 | 0.0 | 0.0 | 0.00 | 0.00 | 0.00 | 91 | 1014.6 |
| 20260505101512 | 49 | 132 | 0.0 | 0.0 | 0.00 | 0.00 | 0.00 | 91 | 1014.1 |
| 20260505100011 | 49 | 132 | 0.0 | 0.0 | 0.00 | 0.00 | 0.00 | 91 | 1014.1 |
| 20260505094510 | 49 | 132 | 0.0 | 0.0 | 0.00 | 0.00 | 0.00 | 91 | 1014.0 |
| 20260505093008 | 49 | 132 | 0.0 | 0.0 | 0.00 | 0.00 | 0.00 | 91 | 1014.0 |
| 20260505091510 | 49 | 132 | 0.0 | 0.0 | 0.00 | 0.00 | 0.00 | 91 | 1013.9 |
| 20260505090004 | 50 | 132 | 0.0 | 0.0 | 0.00 | 0.00 | 0.00 | 90 | 1013.7 |
| 20260505084503 | 50 | 132 | 0.0 | 0.0 | 0.00 | 0.00 | 0.00 | 90 | 1013.6 |
| 20260505083001 | 50 | 132 | 0.0 | 0.0 | 0.00 | 0.00 | 0.00 | 90 | 1013.6 |
| 20260505081605 | 50 | 132 | 0.0 | 0.0 | 0.00 | 0.00 | 0.00 | 90 | 1013.5 |
| 20260505080105 | 51 | 132 | 0.0 | 0.0 | 0.00 | 0.00 | 0.00 | 89 | 1013.4 |
| 20260505074555 | 51 | 132 | 0.0 | 0.0 | 0.00 | 0.00 | 0.00 | 89 | 1013.1 |
| 20260505073059 | 51 | 132 | 0.0 | 0.0 | 0.00 | 0.00 | 0.00 | 89 | 1013.1 |
| 20260505071607 | 52 | 132 | 0.0 | 0.0 | 0.00 | 0.00 | 0.00 | 88 | 1013.0 |
| 20260505070052 | 52 | 132 | 0.0 | 0.0 | 0.00 | 0.00 | 0.00 | 88 | 1012.7 |
| 20260505064548 | 52 | 132 | 0.0 | 0.0 | 0.00 | 0.00 | 0.00 | 88 | 1012.5 |
| 20260505063052 | 53 | 132 | 0.0 | 0.0 | 0.00 | 0.00 | 0.00 | 87 | 1012.4 |
| 20260505061555 | 54 | 132 | 0.0 | 0.0 | 0.00 | 0.00 | 0.00 | 86 | 1012.4 |
| 20260505060058 | 54 | 132 | 0.0 | 0.0 | 0.00 | 0.00 | 0.00 | 86 | 1012.2 |
| 20260505054547 | 55 | 132 | 0.0 | 0.0 | 0.00 | 0.00 | 0.00 | 85 | 1012.1 |
| 20260505053046 | 56 | 132 | 0.0 | 0.0 | 0.00 | 0.00 | 0.00 | 84 | 1012.1 |
| 20260505051548 | 56 | 132 | 0.0 | 0.0 | 0.00 | 0.00 | 0.00 | 84 | 1011.9 |
| 20260505041553 | 60 | 132 | 0.0 | 0.0 | 0.00 | 0.00 | 0.00 | 79 | 1011.1 |
| 20260505040047 | 61 | 132 | 0.0 | 0.0 | 0.00 | 0.00 | 0.00 | 78 | 1011.0 |
| 20260505034543 | 62 | 132 | 0.0 | 0.0 | 0.00 | 0.00 | 0.00 | 76 | 1010.7 |
| 20260505033045 | 64 | 132 | 0.0 | 0.0 | 0.00 | 0.00 | 0.00 | 74 | 1010.4 |
| 20260505031542 | 65 | 132 | 0.0 | 0.0 | 0.00 | 0.00 | 0.00 | 71 | 1010.2 |
| 20260505030054 | 67 | 132 | 0.0 | 0.0 | 0.00 | 0.00 | 0.00 | 69 | 1009.9 |
| 20260505024547 | 69 | 132 | 0.0 | 0.0 | 0.00 | 0.00 | 0.00 | 67 | 1009.8 |
| 20260505023040 | 71 | 132 | 0.0 | 0.0 | 0.00 | 0.00 | 0.00 | 62 | 1009.6 |
| 20260505021541 | 73 | 132 | 0.0 | 0.0 | 0.00 | 0.00 | 0.00 | 61 | 1009.5 |
| 20260505020042 | 73 | 132 | 0.0 | 0.0 | 0.00 | 0.00 | 0.00 | 61 | 1009.3 |
| 20260505014600 | 73 | 131 | 0.0 | 0.0 | 0.00 | 0.00 | 0.00 | 61 | 1009.3 |
| 20260505013048 | 74 | 127 | 0.0 | 0.0 | 0.00 | 0.00 | 0.00 | 60 | 1009.5 |
| 20260505011542 | 74 | 110 | 0.0 | 4.3 | 0.00 | 0.00 | 0.00 | 59 | 1009.5 |
| 20260505010050 | 74 | 262 | 0.0 | 0.9 | 0.00 | 0.00 | 0.00 | 60 | 1009.6 |
| 20260505004547 | 75 | 252 | 0.0 | 3.5 | 0.00 | 0.00 | 0.00 | 61 | 1009.7 |
| 20260505003051 | 74 | 61 | 0.0 | 0.9 | 0.00 | 0.00 | 0.00 | 62 | 1009.8 |
| 20260505001533 | 74 | 190 | 1.7 | 6.1 | 0.00 | 0.00 | 0.00 | 62 | 1009.8 |
| 20260505000035 | 74 | 133 | 0.0 | 5.2 | 0.00 | 0.00 | 0.00 | 62 | 1010.0 |
| 20260504234530 | 73 | 119 | 0.0 | 7.8 | 0.00 | 0.00 | 0.00 | 63 | 1010.1 |
| 20260504233034 | 74 | 81 | 0.0 | 6.1 | 0.00 | 0.00 | 0.00 | 62 | 1010.3 |
| 20260504231526 | 74 | 105 | 0.0 | 3.5 | 0.00 | 0.00 | 0.00 | 66 | 1010.3 |
| 20260504230023 | 73 | 142 | 0.0 | 5.2 | 0.00 | 0.00 | 0.00 | 64 | 1010.5 |
| 20260504224523 | 72 | 88 | 1.7 | 5.2 | 0.00 | 0.00 | 0.00 | 65 | 1010.6 |
| 20260504223022 | 73 | 92 | 0.0 | 2.6 | 0.00 | 0.00 | 0.00 | 66 | 1010.9 |
| 20260504221520 | 72 | 266 | 2.6 | 6.1 | 0.00 | 0.00 | 0.00 | 66 | 1011.0 |
| 20260504220016 | 71 | 93 | 0.0 | 7.0 | 0.00 | 0.00 | 0.00 | 68 | 1011.2 |
| 20260504214517 | 71 | 100 | 0.0 | 6.1 | 0.00 | 0.00 | 0.00 | 69 | 1011.3 |
| 20260504213022 | 70 | 73 | 0.0 | 5.2 | 0.00 | 0.00 | 0.00 | 69 | 1011.4 |
| 20260504211528 | 70 | 90 | 0.0 | 4.3 | 0.00 | 0.00 | 0.00 | 70 | 1011.7 |
| 20260504210008 | 69 | 96 | 0.0 | 4.3 | 0.00 | 0.00 | 0.00 | 70 | 1012.1 |
| 20260504204505 | 68 | 88 | 1.7 | 5.2 | 0.00 | 0.00 | 0.00 | 71 | 1012.2 |
| 20260504203003 | 67 | 46 | 1.7 | 5.2 | 0.00 | 0.00 | 0.00 | 71 | 1012.4 |
| 20260504201612 | 66 | 81 | 0.9 | 4.3 | 0.00 | 0.00 | 0.00 | 73 | 1012.5 |
| 20260504200057 | 65 | 74 | 0.9 | 6.1 | 0.00 | 0.00 | 0.00 | 73 | 1012.7 |
| 20260504194559 | 65 | 62 | 2.6 | 5.2 | 0.00 | 0.00 | 0.00 | 74 | 1012.7 |
| 20260504193105 | 64 | 60 | 1.7 | 4.3 | 0.00 | 0.00 | 0.00 | 75 | 1012.8 |
| 20260504191606 | 63 | 102 | 1.7 | 6.1 | 0.00 | 0.00 | 0.00 | 77 | 1012.9 |
| 20260504190104 | 63 | 89 | 2.6 | 6.1 | 0.00 | 0.00 | 0.00 | 76 | 1013.1 |
| 20260504184551 | 62 | 82 | 2.6 | 6.1 | 0.00 | 0.00 | 0.00 | 79 | 1013.1 |
| 20260504183046 | 61 | 75 | 0.9 | 3.5 | 0.00 | 0.00 | 0.00 | 80 | 1013.2 |
| 20260504181547 | 59 | 75 | 0.0 | 2.6 | 0.00 | 0.00 | 0.00 | 82 | 1013.3 |
| 20260504180042 | 59 | 75 | 0.0 | 3.5 | 0.00 | 0.00 | 0.00 | 82 | 1013.3 |
| 20260504174543 | 58 | 75 | 0.9 | 3.5 | 0.00 | 0.00 | 0.00 | 84 | 1013.3 |
| 20260504173037 | 57 | 75 | 0.0 | 2.6 | 0.00 | 0.00 | 0.00 | 85 | 1013.3 |
| 20260504171539 | 57 | 74 | 0.0 | 1.7 | 0.00 | 0.00 | 0.00 | 85 | 1013.2 |